sensor_id;sensor_type;location;lat;lon;timestamp;temperature;humidity
15450;DHT22;7826;49.784;9.934;2023-09-30T00:01:23;16.40;1.00
15450;DHT22;7826;49.784;9.934;2023-09-30T00:03:49;16.40;1.00
15450;DHT22;7826;49.784;9.934;2023-09-30T00:06:16;16.20;1.00
15450;DHT22;7826;49.784;9.934;2023-09-30T00:08:42;16.20;1.00
15450;DHT22;7826;49.784;9.934;2023-09-30T00:11:09;16.10;1.00
15450;DHT22;7826;49.784;9.934;2023-09-30T00:13:36;16.10;1.00
15450;DHT22;7826;49.784;9.934;2023-09-30T00:16:02;16.10;1.00
15450;DHT22;7826;49.784;9.934;2023-09-30T00:18:29;16.10;1.00
15450;DHT22;7826;49.784;9.934;2023-09-30T00:20:56;16.00;1.00
15450;DHT22;7826;49.784;9.934;2023-09-30T00:23:23;15.90;1.00
15450;DHT22;7826;49.784;9.934;2023-09-30T00:25:50;15.80;1.00
15450;DHT22;7826;49.784;9.934;2023-09-30T00:28:16;15.90;1.00
15450;DHT22;7826;49.784;9.934;2023-09-30T00:30:43;15.80;1.00
15450;DHT22;7826;49.784;9.934;2023-09-30T00:33:13;15.70;1.00
15450;DHT22;7826;49.784;9.934;2023-09-30T00:35:39;15.70;1.00
15450;DHT22;7826;49.784;9.934;2023-09-30T00:38:06;15.70;1.00
15450;DHT22;7826;49.784;9.934;2023-09-30T00:40:33;15.70;1.00
15450;DHT22;7826;49.784;9.934;2023-09-30T00:43:01;15.70;1.00
15450;DHT22;7826;49.784;9.934;2023-09-30T00:45:28;15.60;1.00
15450;DHT22;7826;49.784;9.934;2023-09-30T00:47:55;15.50;1.00
15450;DHT22;7826;49.784;9.934;2023-09-30T00:50:22;15.60;1.00
15450;DHT22;7826;49.784;9.934;2023-09-30T00:52:49;15.50;1.00
15450;DHT22;7826;49.784;9.934;2023-09-30T00:55:16;15.50;1.00
15450;DHT22;7826;49.784;9.934;2023-09-30T00:57:43;15.30;1.00
15450;DHT22;7826;49.784;9.934;2023-09-30T01:00:11;15.40;1.00
15450;DHT22;7826;49.784;9.934;2023-09-30T01:02:41;15.40;1.00
15450;DHT22;7826;49.784;9.934;2023-09-30T01:05:08;15.20;1.00
15450;DHT22;7826;49.784;9.934;2023-09-30T01:07:35;15.30;1.00
15450;DHT22;7826;49.784;9.934;2023-09-30T01:10:02;15.20;1.00
15450;DHT22;7826;49.784;9.934;2023-09-30T01:12:29;15.10;1.00
15450;DHT22;7826;49.784;9.934;2023-09-30T01:14:58;15.10;1.00
15450;DHT22;7826;49.784;9.934;2023-09-30T01:17:26;15.10;1.00
15450;DHT22;7826;49.784;9.934;2023-09-30T01:19:57;15.10;1.00
15450;DHT22;7826;49.784;9.934;2023-09-30T01:22:25;15.00;1.00
15450;DHT22;7826;49.784;9.934;2023-09-30T01:24:51;15.00;1.00
15450;DHT22;7826;49.784;9.934;2023-09-30T01:27:18;14.90;1.00
15450;DHT22;7826;49.784;9.934;2023-09-30T01:29:45;14.90;1.00
15450;DHT22;7826;49.784;9.934;2023-09-30T01:32:12;14.90;1.00
15450;DHT22;7826;49.784;9.934;2023-09-30T01:34:40;14.80;1.00
15450;DHT22;7826;49.784;9.934;2023-09-30T01:37:06;14.80;1.00
15450;DHT22;7826;49.784;9.934;2023-09-30T01:39:32;14.80;1.00
15450;DHT22;7826;49.784;9.934;2023-09-30T01:42:00;14.70;1.00
15450;DHT22;7826;49.784;9.934;2023-09-30T01:44:26;14.70;1.00
15450;DHT22;7826;49.784;9.934;2023-09-30T01:46:53;14.70;1.00
15450;DHT22;7826;49.784;9.934;2023-09-30T01:49:20;14.60;1.00
15450;DHT22;7826;49.784;9.934;2023-09-30T01:51:49;14.60;1.00
15450;DHT22;7826;49.784;9.934;2023-09-30T01:54:16;14.60;1.00
15450;DHT22;7826;49.784;9.934;2023-09-30T01:56:42;14.60;1.00
15450;DHT22;7826;49.784;9.934;2023-09-30T01:59:09;14.60;1.00
15450;DHT22;7826;49.784;9.934;2023-09-30T02:01:35;14.60;1.00
15450;DHT22;7826;49.784;9.934;2023-09-30T02:04:02;14.60;1.00
15450;DHT22;7826;49.784;9.934;2023-09-30T02:06:29;14.50;1.00
15450;DHT22;7826;49.784;9.934;2023-09-30T02:08:55;14.50;1.00
15450;DHT22;7826;49.784;9.934;2023-09-30T02:11:22;14.50;1.00
15450;DHT22;7826;49.784;9.934;2023-09-30T02:13:48;14.40;1.00
15450;DHT22;7826;49.784;9.934;2023-09-30T02:16:15;14.40;1.00
15450;DHT22;7826;49.784;9.934;2023-09-30T02:18:43;14.40;1.00
15450;DHT22;7826;49.784;9.934;2023-09-30T02:21:13;14.40;1.00
15450;DHT22;7826;49.784;9.934;2023-09-30T02:23:40;14.40;1.00
15450;DHT22;7826;49.784;9.934;2023-09-30T02:26:06;14.30;1.00
15450;DHT22;7826;49.784;9.934;2023-09-30T02:28:33;14.30;1.00
15450;DHT22;7826;49.784;9.934;2023-09-30T02:31:00;14.20;1.00
15450;DHT22;7826;49.784;9.934;2023-09-30T02:33:27;14.20;1.00
15450;DHT22;7826;49.784;9.934;2023-09-30T02:35:53;14.20;1.00
15450;DHT22;7826;49.784;9.934;2023-09-30T02:38:20;14.20;1.00
15450;DHT22;7826;49.784;9.934;2023-09-30T02:40:47;14.20;1.00
15450;DHT22;7826;49.784;9.934;2023-09-30T02:43:14;14.10;1.00
15450;DHT22;7826;49.784;9.934;2023-09-30T02:45:41;14.10;1.00
15450;DHT22;7826;49.784;9.934;2023-09-30T02:48:07;14.00;1.00
15450;DHT22;7826;49.784;9.934;2023-09-30T02:50:34;14.00;1.00
15450;DHT22;7826;49.784;9.934;2023-09-30T02:53:01;14.00;1.00
15450;DHT22;7826;49.784;9.934;2023-09-30T02:55:27;14.00;1.00
15450;DHT22;7826;49.784;9.934;2023-09-30T02:57:54;13.90;1.00
15450;DHT22;7826;49.784;9.934;2023-09-30T03:00:21;13.90;1.00
15450;DHT22;7826;49.784;9.934;2023-09-30T03:02:53;14.00;1.00
15450;DHT22;7826;49.784;9.934;2023-09-30T03:05:20;13.90;1.00
15450;DHT22;7826;49.784;9.934;2023-09-30T03:07:47;14.00;1.00
15450;DHT22;7826;49.784;9.934;2023-09-30T03:10:14;13.80;1.00
15450;DHT22;7826;49.784;9.934;2023-09-30T03:12:52;13.80;1.00
15450;DHT22;7826;49.784;9.934;2023-09-30T03:15:19;13.80;1.00
15450;DHT22;7826;49.784;9.934;2023-09-30T03:17:46;13.70;1.00
15450;DHT22;7826;49.784;9.934;2023-09-30T03:20:12;13.70;1.00
15450;DHT22;7826;49.784;9.934;2023-09-30T03:22:45;13.70;1.00
15450;DHT22;7826;49.784;9.934;2023-09-30T03:25:16;13.60;1.00
15450;DHT22;7826;49.784;9.934;2023-09-30T03:27:44;13.60;1.00
15450;DHT22;7826;49.784;9.934;2023-09-30T03:30:16;13.60;1.00
15450;DHT22;7826;49.784;9.934;2023-09-30T03:32:43;13.50;1.00
15450;DHT22;7826;49.784;9.934;2023-09-30T03:35:11;13.50;1.00
15450;DHT22;7826;49.784;9.934;2023-09-30T03:37:41;13.50;1.00
15450;DHT22;7826;49.784;9.934;2023-09-30T03:40:07;13.50;1.00
15450;DHT22;7826;49.784;9.934;2023-09-30T03:42:41;13.40;1.00
15450;DHT22;7826;49.784;9.934;2023-09-30T03:45:11;13.40;1.00
15450;DHT22;7826;49.784;9.934;2023-09-30T03:47:40;13.40;1.00
15450;DHT22;7826;49.784;9.934;2023-09-30T03:50:07;13.40;1.00
15450;DHT22;7826;49.784;9.934;2023-09-30T03:52:41;13.40;1.00
15450;DHT22;7826;49.784;9.934;2023-09-30T03:55:11;13.40;1.00
15450;DHT22;7826;49.784;9.934;2023-09-30T03:57:38;13.40;1.00
15450;DHT22;7826;49.784;9.934;2023-09-30T04:00:05;13.30;1.00
15450;DHT22;7826;49.784;9.934;2023-09-30T04:02:33;13.20;1.00
15450;DHT22;7826;49.784;9.934;2023-09-30T04:05:00;13.20;1.00
15450;DHT22;7826;49.784;9.934;2023-09-30T04:07:31;13.30;1.00
15450;DHT22;7826;49.784;9.934;2023-09-30T04:09:57;13.10;1.00
15450;DHT22;7826;49.784;9.934;2023-09-30T04:12:24;13.10;1.00
15450;DHT22;7826;49.784;9.934;2023-09-30T04:14:50;13.20;1.00
15450;DHT22;7826;49.784;9.934;2023-09-30T04:17:17;13.10;1.00
15450;DHT22;7826;49.784;9.934;2023-09-30T04:19:44;13.10;1.00
15450;DHT22;7826;49.784;9.934;2023-09-30T04:22:12;13.00;1.00
15450;DHT22;7826;49.784;9.934;2023-09-30T04:24:39;12.90;1.00
15450;DHT22;7826;49.784;9.934;2023-09-30T04:27:05;12.90;1.00
15450;DHT22;7826;49.784;9.934;2023-09-30T04:29:33;12.90;1.00
15450;DHT22;7826;49.784;9.934;2023-09-30T04:32:01;12.90;1.00
15450;DHT22;7826;49.784;9.934;2023-09-30T04:34:27;12.80;1.00
15450;DHT22;7826;49.784;9.934;2023-09-30T04:36:54;12.80;1.00
15450;DHT22;7826;49.784;9.934;2023-09-30T04:39:20;12.90;1.00
15450;DHT22;7826;49.784;9.934;2023-09-30T04:41:47;12.80;1.00
15450;DHT22;7826;49.784;9.934;2023-09-30T04:44:14;12.80;1.00
15450;DHT22;7826;49.784;9.934;2023-09-30T04:46:40;12.80;1.00
15450;DHT22;7826;49.784;9.934;2023-09-30T04:49:07;12.70;1.00
15450;DHT22;7826;49.784;9.934;2023-09-30T04:51:34;12.70;1.00
15450;DHT22;7826;49.784;9.934;2023-09-30T04:54:00;12.60;1.00
15450;DHT22;7826;49.784;9.934;2023-09-30T04:56:28;12.60;1.00
15450;DHT22;7826;49.784;9.934;2023-09-30T04:58:55;12.70;1.00
15450;DHT22;7826;49.784;9.934;2023-09-30T05:01:21;12.60;1.00
15450;DHT22;7826;49.784;9.934;2023-09-30T05:03:48;12.70;1.00
15450;DHT22;7826;49.784;9.934;2023-09-30T05:06:15;12.60;1.00
15450;DHT22;7826;49.784;9.934;2023-09-30T05:08:42;12.60;1.00
15450;DHT22;7826;49.784;9.934;2023-09-30T05:11:08;12.60;1.00
15450;DHT22;7826;49.784;9.934;2023-09-30T05:13:35;12.60;1.00
15450;DHT22;7826;49.784;9.934;2023-09-30T05:16:02;12.60;1.00
15450;DHT22;7826;49.784;9.934;2023-09-30T05:18:33;12.50;1.00
15450;DHT22;7826;49.784;9.934;2023-09-30T05:21:00;12.50;1.00
15450;DHT22;7826;49.784;9.934;2023-09-30T05:23:27;12.40;1.00
15450;DHT22;7826;49.784;9.934;2023-09-30T05:25:53;12.50;1.00
15450;DHT22;7826;49.784;9.934;2023-09-30T05:28:20;12.50;1.00
15450;DHT22;7826;49.784;9.934;2023-09-30T05:30:47;12.50;1.00
15450;DHT22;7826;49.784;9.934;2023-09-30T05:33:13;12.50;1.00
15450;DHT22;7826;49.784;9.934;2023-09-30T05:35:41;12.50;1.00
15450;DHT22;7826;49.784;9.934;2023-09-30T05:38:08;12.60;1.00
15450;DHT22;7826;49.784;9.934;2023-09-30T05:40:35;12.60;1.00
15450;DHT22;7826;49.784;9.934;2023-09-30T05:43:01;12.60;1.00
15450;DHT22;7826;49.784;9.934;2023-09-30T05:45:33;12.70;1.00
15450;DHT22;7826;49.784;9.934;2023-09-30T05:48:03;12.70;1.00
15450;DHT22;7826;49.784;9.934;2023-09-30T05:50:33;12.70;1.00
15450;DHT22;7826;49.784;9.934;2023-09-30T05:53:00;12.70;1.00
15450;DHT22;7826;49.784;9.934;2023-09-30T05:55:27;12.80;1.00
15450;DHT22;7826;49.784;9.934;2023-09-30T05:57:54;12.80;1.00
15450;DHT22;7826;49.784;9.934;2023-09-30T06:00:21;12.90;1.00
15450;DHT22;7826;49.784;9.934;2023-09-30T06:02:49;12.90;1.00
15450;DHT22;7826;49.784;9.934;2023-09-30T06:05:18;12.90;1.00
15450;DHT22;7826;49.784;9.934;2023-09-30T06:07:49;12.80;1.00
15450;DHT22;7826;49.784;9.934;2023-09-30T06:10:15;12.90;1.00
15450;DHT22;7826;49.784;9.934;2023-09-30T06:12:49;12.80;1.00
15450;DHT22;7826;49.784;9.934;2023-09-30T06:15:21;12.80;1.00
15450;DHT22;7826;49.784;9.934;2023-09-30T06:17:52;12.80;1.00
15450;DHT22;7826;49.784;9.934;2023-09-30T06:20:19;12.80;1.00
15450;DHT22;7826;49.784;9.934;2023-09-30T06:22:49;12.90;1.00
15450;DHT22;7826;49.784;9.934;2023-09-30T06:25:16;12.90;1.00
15450;DHT22;7826;49.784;9.934;2023-09-30T06:27:47;13.00;1.00
15450;DHT22;7826;49.784;9.934;2023-09-30T06:30:18;13.00;1.00
15450;DHT22;7826;49.784;9.934;2023-09-30T06:32:48;13.00;1.00
15450;DHT22;7826;49.784;9.934;2023-09-30T06:35:14;12.90;1.00
15450;DHT22;7826;49.784;9.934;2023-09-30T06:37:41;12.90;1.00
15450;DHT22;7826;49.784;9.934;2023-09-30T06:40:09;12.90;1.00
15450;DHT22;7826;49.784;9.934;2023-09-30T06:42:38;12.90;1.00
15450;DHT22;7826;49.784;9.934;2023-09-30T06:45:08;13.00;1.00
15450;DHT22;7826;49.784;9.934;2023-09-30T06:47:37;13.00;1.00
15450;DHT22;7826;49.784;9.934;2023-09-30T06:50:08;13.00;1.00
15450;DHT22;7826;49.784;9.934;2023-09-30T06:52:36;13.10;1.00
15450;DHT22;7826;49.784;9.934;2023-09-30T06:55:03;13.20;1.00
15450;DHT22;7826;49.784;9.934;2023-09-30T06:57:36;13.20;1.00
15450;DHT22;7826;49.784;9.934;2023-09-30T07:00:07;13.20;1.00
15450;DHT22;7826;49.784;9.934;2023-09-30T07:02:38;13.30;1.00
15450;DHT22;7826;49.784;9.934;2023-09-30T07:05:08;13.40;1.00
15450;DHT22;7826;49.784;9.934;2023-09-30T07:07:39;13.40;1.00
15450;DHT22;7826;49.784;9.934;2023-09-30T07:10:06;13.50;1.00
15450;DHT22;7826;49.784;9.934;2023-09-30T07:12:33;13.50;1.00
15450;DHT22;7826;49.784;9.934;2023-09-30T07:15:05;13.50;1.00
15450;DHT22;7826;49.784;9.934;2023-09-30T07:17:33;13.60;1.00
15450;DHT22;7826;49.784;9.934;2023-09-30T07:20:03;13.70;1.00
15450;DHT22;7826;49.784;9.934;2023-09-30T07:22:31;13.80;1.00
15450;DHT22;7826;49.784;9.934;2023-09-30T07:24:57;13.80;1.00
15450;DHT22;7826;49.784;9.934;2023-09-30T07:27:24;13.90;1.00
15450;DHT22;7826;49.784;9.934;2023-09-30T07:29:51;14.00;1.00
15450;DHT22;7826;49.784;9.934;2023-09-30T07:32:17;14.20;1.00
15450;DHT22;7826;49.784;9.934;2023-09-30T07:34:44;14.20;1.00
15450;DHT22;7826;49.784;9.934;2023-09-30T07:37:10;14.30;1.00
15450;DHT22;7826;49.784;9.934;2023-09-30T07:39:37;14.20;1.00
15450;DHT22;7826;49.784;9.934;2023-09-30T07:42:04;14.20;1.00
15450;DHT22;7826;49.784;9.934;2023-09-30T07:44:31;14.20;1.00
15450;DHT22;7826;49.784;9.934;2023-09-30T07:46:58;14.20;1.00
15450;DHT22;7826;49.784;9.934;2023-09-30T07:49:24;14.10;1.00
15450;DHT22;7826;49.784;9.934;2023-09-30T07:51:51;14.20;1.00
15450;DHT22;7826;49.784;9.934;2023-09-30T07:54:18;14.20;1.00
15450;DHT22;7826;49.784;9.934;2023-09-30T07:56:44;14.30;1.00
15450;DHT22;7826;49.784;9.934;2023-09-30T07:59:10;14.40;1.00
15450;DHT22;7826;49.784;9.934;2023-09-30T08:01:37;14.50;1.00
15450;DHT22;7826;49.784;9.934;2023-09-30T08:04:04;14.70;1.00
15450;DHT22;7826;49.784;9.934;2023-09-30T08:06:30;14.80;1.00
15450;DHT22;7826;49.784;9.934;2023-09-30T08:08:57;15.00;1.00
15450;DHT22;7826;49.784;9.934;2023-09-30T08:11:24;15.10;1.00
15450;DHT22;7826;49.784;9.934;2023-09-30T08:13:54;15.20;1.00
15450;DHT22;7826;49.784;9.934;2023-09-30T08:16:21;15.20;1.00
15450;DHT22;7826;49.784;9.934;2023-09-30T08:18:47;15.20;1.00
15450;DHT22;7826;49.784;9.934;2023-09-30T08:21:14;15.10;1.00
15450;DHT22;7826;49.784;9.934;2023-09-30T08:23:40;15.30;1.00
15450;DHT22;7826;49.784;9.934;2023-09-30T08:26:07;15.80;1.00
15450;DHT22;7826;49.784;9.934;2023-09-30T08:28:34;16.10;1.00
15450;DHT22;7826;49.784;9.934;2023-09-30T08:31:07;16.10;1.00
15450;DHT22;7826;49.784;9.934;2023-09-30T08:33:35;15.90;1.00
15450;DHT22;7826;49.784;9.934;2023-09-30T08:36:06;16.10;1.00
15450;DHT22;7826;49.784;9.934;2023-09-30T08:38:37;16.10;1.00
15450;DHT22;7826;49.784;9.934;2023-09-30T08:41:04;16.30;1.00
15450;DHT22;7826;49.784;9.934;2023-09-30T08:43:39;16.70;1.00
15450;DHT22;7826;49.784;9.934;2023-09-30T08:46:06;16.90;99.90
15450;DHT22;7826;49.784;9.934;2023-09-30T08:48:33;17.00;99.90
15450;DHT22;7826;49.784;9.934;2023-09-30T08:51:01;16.90;99.90
15450;DHT22;7826;49.784;9.934;2023-09-30T08:53:32;16.90;99.90
15450;DHT22;7826;49.784;9.934;2023-09-30T08:55:58;17.00;99.90
15450;DHT22;7826;49.784;9.934;2023-09-30T08:58:27;17.10;99.90
15450;DHT22;7826;49.784;9.934;2023-09-30T09:00:55;17.30;99.90
15450;DHT22;7826;49.784;9.934;2023-09-30T09:03:22;17.40;99.90
15450;DHT22;7826;49.784;9.934;2023-09-30T09:05:56;17.50;99.90
15450;DHT22;7826;49.784;9.934;2023-09-30T09:08:26;17.70;99.90
15450;DHT22;7826;49.784;9.934;2023-09-30T09:11:02;17.80;99.90
15450;DHT22;7826;49.784;9.934;2023-09-30T09:16:12;18.80;1.00
15450;DHT22;7826;49.784;9.934;2023-09-30T09:18:38;18.50;1.00
15450;DHT22;7826;49.784;9.934;2023-09-30T09:21:09;18.50;1.00
15450;DHT22;7826;49.784;9.934;2023-09-30T09:23:46;18.50;1.00
15450;DHT22;7826;49.784;9.934;2023-09-30T09:29:00;18.50;99.90
15450;DHT22;7826;49.784;9.934;2023-09-30T09:31:28;18.40;1.00
15450;DHT22;7826;49.784;9.934;2023-09-30T09:33:56;18.10;1.00
15450;DHT22;7826;49.784;9.934;2023-09-30T09:36:41;18.00;1.00
15450;DHT22;7826;49.784;9.934;2023-09-30T09:39:08;18.10;1.00
15450;DHT22;7826;49.784;9.934;2023-09-30T09:41:50;18.20;1.00
15450;DHT22;7826;49.784;9.934;2023-09-30T09:44:19;18.20;1.00
15450;DHT22;7826;49.784;9.934;2023-09-30T09:46:47;18.20;1.00
15450;DHT22;7826;49.784;9.934;2023-09-30T09:49:16;18.30;1.00
15450;DHT22;7826;49.784;9.934;2023-09-30T09:51:47;18.10;1.00
15450;DHT22;7826;49.784;9.934;2023-09-30T09:54:15;18.10;1.00
15450;DHT22;7826;49.784;9.934;2023-09-30T09:56:44;18.20;1.00
15450;DHT22;7826;49.784;9.934;2023-09-30T09:59:12;18.10;1.00
15450;DHT22;7826;49.784;9.934;2023-09-30T10:01:40;18.00;1.00
15450;DHT22;7826;49.784;9.934;2023-09-30T10:04:07;18.00;1.00
15450;DHT22;7826;49.784;9.934;2023-09-30T10:06:35;18.00;1.00
15450;DHT22;7826;49.784;9.934;2023-09-30T10:09:09;18.10;1.00
15450;DHT22;7826;49.784;9.934;2023-09-30T10:11:40;18.20;1.00
15450;DHT22;7826;49.784;9.934;2023-09-30T10:14:08;18.00;1.00
15450;DHT22;7826;49.784;9.934;2023-09-30T10:19:12;18.00;1.00
15450;DHT22;7826;49.784;9.934;2023-09-30T10:21:40;18.00;1.00
15450;DHT22;7826;49.784;9.934;2023-09-30T10:30:05;18.40;1.00
15450;DHT22;7826;49.784;9.934;2023-09-30T10:35:22;18.80;99.90
15450;DHT22;7826;49.784;9.934;2023-09-30T10:40:51;19.00;1.00
15450;DHT22;7826;49.784;9.934;2023-09-30T10:43:33;19.00;1.00
15450;DHT22;7826;49.784;9.934;2023-09-30T10:46:00;19.00;99.90
15450;DHT22;7826;49.784;9.934;2023-09-30T10:51:16;19.00;1.00
15450;DHT22;7826;49.784;9.934;2023-09-30T10:53:50;19.00;1.00
15450;DHT22;7826;49.784;9.934;2023-09-30T10:56:23;19.20;1.00
15450;DHT22;7826;49.784;9.934;2023-09-30T10:58:51;19.00;99.90
15450;DHT22;7826;49.784;9.934;2023-09-30T11:01:22;18.90;1.00
15450;DHT22;7826;49.784;9.934;2023-09-30T11:03:50;18.80;1.00
15450;DHT22;7826;49.784;9.934;2023-09-30T11:06:20;18.80;1.00
15450;DHT22;7826;49.784;9.934;2023-09-30T11:11:21;18.70;88.40
15450;DHT22;7826;49.784;9.934;2023-09-30T11:13:57;18.60;1.00
15450;DHT22;7826;49.784;9.934;2023-09-30T11:16:24;18.40;1.00
15450;DHT22;7826;49.784;9.934;2023-09-30T11:18:54;18.30;99.90
15450;DHT22;7826;49.784;9.934;2023-09-30T11:21:22;18.20;99.90
15450;DHT22;7826;49.784;9.934;2023-09-30T11:23:49;18.20;1.00
15450;DHT22;7826;49.784;9.934;2023-09-30T11:26:16;18.30;1.00
15450;DHT22;7826;49.784;9.934;2023-09-30T11:28:55;18.60;1.00
15450;DHT22;7826;49.784;9.934;2023-09-30T11:31:22;18.70;1.00
15450;DHT22;7826;49.784;9.934;2023-09-30T11:33:53;18.60;99.90
15450;DHT22;7826;49.784;9.934;2023-09-30T11:36:22;18.50;1.00
15450;DHT22;7826;49.784;9.934;2023-09-30T11:38:51;18.40;99.90
15450;DHT22;7826;49.784;9.934;2023-09-30T11:41:22;18.50;99.90
15450;DHT22;7826;49.784;9.934;2023-09-30T11:44:11;19.10;1.00
15450;DHT22;7826;49.784;9.934;2023-09-30T11:49:31;19.60;96.80
15450;DHT22;7826;49.784;9.934;2023-09-30T11:52:00;20.00;1.00
15450;DHT22;7826;49.784;9.934;2023-09-30T11:54:34;20.20;12.90
15450;DHT22;7826;49.784;9.934;2023-09-30T11:57:03;20.70;1.00
15450;DHT22;7826;49.784;9.934;2023-09-30T11:59:31;20.80;1.00
15450;DHT22;7826;49.784;9.934;2023-09-30T12:01:58;20.80;99.90
15450;DHT22;7826;49.784;9.934;2023-09-30T12:04:25;21.30;1.00
15450;DHT22;7826;49.784;9.934;2023-09-30T12:06:52;21.60;1.00
15450;DHT22;7826;49.784;9.934;2023-09-30T12:09:19;22.10;1.00
15450;DHT22;7826;49.784;9.934;2023-09-30T12:11:52;22.40;99.90
15450;DHT22;7826;49.784;9.934;2023-09-30T12:14:18;22.80;1.00
15450;DHT22;7826;49.784;9.934;2023-09-30T12:16:45;22.80;1.00
15450;DHT22;7826;49.784;9.934;2023-09-30T12:19:19;22.90;42.20
15450;DHT22;7826;49.784;9.934;2023-09-30T12:21:46;22.50;1.00
15450;DHT22;7826;49.784;9.934;2023-09-30T12:24:15;22.70;1.00
15450;DHT22;7826;49.784;9.934;2023-09-30T12:26:51;22.70;1.00
15450;DHT22;7826;49.784;9.934;2023-09-30T12:29:19;22.90;1.00
15450;DHT22;7826;49.784;9.934;2023-09-30T12:31:50;22.80;99.90
15450;DHT22;7826;49.784;9.934;2023-09-30T12:34:16;22.80;1.00
15450;DHT22;7826;49.784;9.934;2023-09-30T12:36:43;22.90;1.00
15450;DHT22;7826;49.784;9.934;2023-09-30T12:39:10;22.70;1.00
15450;DHT22;7826;49.784;9.934;2023-09-30T12:41:38;22.50;1.00
15450;DHT22;7826;49.784;9.934;2023-09-30T12:44:09;22.40;99.90
15450;DHT22;7826;49.784;9.934;2023-09-30T12:46:37;22.50;99.90
15450;DHT22;7826;49.784;9.934;2023-09-30T12:49:06;22.20;99.90
15450;DHT22;7826;49.784;9.934;2023-09-30T12:51:33;21.90;1.00
15450;DHT22;7826;49.784;9.934;2023-09-30T12:54:00;21.30;99.90
15450;DHT22;7826;49.784;9.934;2023-09-30T12:56:27;21.00;1.00
15450;DHT22;7826;49.784;9.934;2023-09-30T12:58:57;20.80;1.00
15450;DHT22;7826;49.784;9.934;2023-09-30T13:01:24;21.20;99.90
15450;DHT22;7826;49.784;9.934;2023-09-30T13:03:51;21.40;1.00
15450;DHT22;7826;49.784;9.934;2023-09-30T13:06:19;21.70;1.00
15450;DHT22;7826;49.784;9.934;2023-09-30T13:08:46;21.60;1.00
15450;DHT22;7826;49.784;9.934;2023-09-30T13:11:13;21.70;1.00
15450;DHT22;7826;49.784;9.934;2023-09-30T13:13:40;21.50;1.00
15450;DHT22;7826;49.784;9.934;2023-09-30T13:16:10;21.50;1.00
15450;DHT22;7826;49.784;9.934;2023-09-30T13:18:37;21.60;80.00
15450;DHT22;7826;49.784;9.934;2023-09-30T13:21:03;21.80;99.90
15450;DHT22;7826;49.784;9.934;2023-09-30T13:23:32;21.80;93.10
15450;DHT22;7826;49.784;9.934;2023-09-30T13:25:59;21.90;99.90
15450;DHT22;7826;49.784;9.934;2023-09-30T13:28:27;22.00;99.90
15450;DHT22;7826;49.784;9.934;2023-09-30T13:30:56;22.10;1.00
15450;DHT22;7826;49.784;9.934;2023-09-30T13:33:23;22.00;1.00
15450;DHT22;7826;49.784;9.934;2023-09-30T13:35:49;21.90;1.00
15450;DHT22;7826;49.784;9.934;2023-09-30T13:38:16;21.50;1.00
15450;DHT22;7826;49.784;9.934;2023-09-30T13:40:43;21.20;1.00
15450;DHT22;7826;49.784;9.934;2023-09-30T13:43:10;21.40;1.00
15450;DHT22;7826;49.784;9.934;2023-09-30T13:45:36;21.20;1.00
15450;DHT22;7826;49.784;9.934;2023-09-30T13:48:03;21.20;1.00
15450;DHT22;7826;49.784;9.934;2023-09-30T13:50:30;20.90;48.20
15450;DHT22;7826;49.784;9.934;2023-09-30T13:52:57;20.70;99.90
15450;DHT22;7826;49.784;9.934;2023-09-30T13:55:27;20.80;99.90
15450;DHT22;7826;49.784;9.934;2023-09-30T13:57:53;20.50;1.00
15450;DHT22;7826;49.784;9.934;2023-09-30T14:00:20;20.50;1.00
15450;DHT22;7826;49.784;9.934;2023-09-30T14:02:47;20.70;1.00
15450;DHT22;7826;49.784;9.934;2023-09-30T14:05:13;20.70;1.00
15450;DHT22;7826;49.784;9.934;2023-09-30T14:07:40;20.50;99.90
15450;DHT22;7826;49.784;9.934;2023-09-30T14:10:07;20.40;1.00
15450;DHT22;7826;49.784;9.934;2023-09-30T14:12:37;20.30;1.00
15450;DHT22;7826;49.784;9.934;2023-09-30T14:15:05;20.30;99.90
15450;DHT22;7826;49.784;9.934;2023-09-30T14:17:32;20.10;99.90
15450;DHT22;7826;49.784;9.934;2023-09-30T14:19:58;20.10;99.90
15450;DHT22;7826;49.784;9.934;2023-09-30T14:22:25;19.90;1.00
15450;DHT22;7826;49.784;9.934;2023-09-30T14:24:52;19.90;1.00
15450;DHT22;7826;49.784;9.934;2023-09-30T14:27:19;19.80;61.90
15450;DHT22;7826;49.784;9.934;2023-09-30T14:29:46;19.90;99.90
15450;DHT22;7826;49.784;9.934;2023-09-30T14:32:13;19.90;99.90
15450;DHT22;7826;49.784;9.934;2023-09-30T14:34:39;20.00;99.90
15450;DHT22;7826;49.784;9.934;2023-09-30T14:37:06;19.80;59.00
15450;DHT22;7826;49.784;9.934;2023-09-30T14:39:32;19.80;1.00
15450;DHT22;7826;49.784;9.934;2023-09-30T14:41:58;19.80;1.00
15450;DHT22;7826;49.784;9.934;2023-09-30T14:44:25;19.70;24.00
15450;DHT22;7826;49.784;9.934;2023-09-30T14:46:52;19.60;99.90
15450;DHT22;7826;49.784;9.934;2023-09-30T14:49:19;19.50;1.00
15450;DHT22;7826;49.784;9.934;2023-09-30T14:51:46;19.40;99.90
15450;DHT22;7826;49.784;9.934;2023-09-30T14:54:14;19.30;99.90
15450;DHT22;7826;49.784;9.934;2023-09-30T14:56:41;19.30;1.00
15450;DHT22;7826;49.784;9.934;2023-09-30T14:59:07;19.30;1.00
15450;DHT22;7826;49.784;9.934;2023-09-30T15:01:33;19.30;99.90
15450;DHT22;7826;49.784;9.934;2023-09-30T15:04:00;19.30;22.30
15450;DHT22;7826;49.784;9.934;2023-09-30T15:06:27;19.10;1.00
15450;DHT22;7826;49.784;9.934;2023-09-30T15:08:54;19.00;1.00
15450;DHT22;7826;49.784;9.934;2023-09-30T15:11:21;19.10;1.00
15450;DHT22;7826;49.784;9.934;2023-09-30T15:13:49;19.00;1.00
15450;DHT22;7826;49.784;9.934;2023-09-30T15:16:21;18.90;1.00
15450;DHT22;7826;49.784;9.934;2023-09-30T15:18:48;18.80;1.00
15450;DHT22;7826;49.784;9.934;2023-09-30T15:21:16;18.80;1.00
15450;DHT22;7826;49.784;9.934;2023-09-30T15:23:43;18.80;1.00
15450;DHT22;7826;49.784;9.934;2023-09-30T15:26:09;18.70;1.00
15450;DHT22;7826;49.784;9.934;2023-09-30T15:28:36;18.60;99.90
15450;DHT22;7826;49.784;9.934;2023-09-30T15:31:04;18.50;1.00
15450;DHT22;7826;49.784;9.934;2023-09-30T15:33:31;18.50;99.90
15450;DHT22;7826;49.784;9.934;2023-09-30T15:35:58;18.50;1.00
15450;DHT22;7826;49.784;9.934;2023-09-30T15:38:31;18.40;1.00
15450;DHT22;7826;49.784;9.934;2023-09-30T15:40:57;18.40;1.00
15450;DHT22;7826;49.784;9.934;2023-09-30T15:43:24;18.30;50.40
15450;DHT22;7826;49.784;9.934;2023-09-30T15:45:51;18.30;99.90
15450;DHT22;7826;49.784;9.934;2023-09-30T15:48:18;18.20;99.90
15450;DHT22;7826;49.784;9.934;2023-09-30T15:50:44;18.20;1.00
15450;DHT22;7826;49.784;9.934;2023-09-30T15:53:12;18.10;1.00
15450;DHT22;7826;49.784;9.934;2023-09-30T15:55:38;18.00;1.00
15450;DHT22;7826;49.784;9.934;2023-09-30T15:58:05;18.10;1.00
15450;DHT22;7826;49.784;9.934;2023-09-30T16:00:39;18.00;99.90
15450;DHT22;7826;49.784;9.934;2023-09-30T16:03:06;18.00;1.00
15450;DHT22;7826;49.784;9.934;2023-09-30T16:05:34;18.00;1.00
15450;DHT22;7826;49.784;9.934;2023-09-30T16:08:07;17.90;99.90
15450;DHT22;7826;49.784;9.934;2023-09-30T16:10:33;17.90;99.90
15450;DHT22;7826;49.784;9.934;2023-09-30T16:13:05;17.80;1.00
15450;DHT22;7826;49.784;9.934;2023-09-30T16:15:38;17.70;1.00
15450;DHT22;7826;49.784;9.934;2023-09-30T16:18:06;17.60;1.00
15450;DHT22;7826;49.784;9.934;2023-09-30T16:20:33;17.50;1.00
15450;DHT22;7826;49.784;9.934;2023-09-30T16:23:00;17.40;99.90
15450;DHT22;7826;49.784;9.934;2023-09-30T16:25:26;17.40;99.90
15450;DHT22;7826;49.784;9.934;2023-09-30T16:27:53;17.40;1.00
15450;DHT22;7826;49.784;9.934;2023-09-30T16:30:20;17.30;1.00
15450;DHT22;7826;49.784;9.934;2023-09-30T16:32:48;17.30;1.00